createdAt,value
2023-05-24T00:01:38.539Z,11.18
2023-05-24T00:04:06.698Z,11.16
2023-05-24T00:06:36.501Z,11.13
2023-05-24T00:09:06.339Z,11.07
2023-05-24T00:11:34.816Z,11.06
2023-05-24T00:14:03.100Z,11.04
2023-05-24T00:16:31.360Z,10.99
2023-05-24T00:18:59.387Z,10.95
2023-05-24T00:21:27.557Z,10.95
2023-05-24T00:23:55.895Z,10.75
2023-05-24T00:26:26.218Z,10.74
2023-05-24T00:28:56.330Z,10.70
2023-05-24T00:31:24.533Z,10.65
2023-05-24T00:33:52.637Z,10.68
2023-05-24T00:36:23.621Z,10.70
2023-05-24T00:38:54.067Z,10.77
2023-05-24T00:41:22.316Z,10.74
2023-05-24T00:43:52.544Z,10.72
2023-05-24T00:46:23.329Z,10.73
2023-05-24T00:48:52.585Z,10.71
2023-05-24T00:51:20.847Z,10.73
2023-05-24T00:53:50.550Z,10.65
2023-05-24T00:56:21.039Z,10.63
2023-05-24T00:58:50.607Z,10.53
2023-05-24T01:01:20.311Z,10.50
2023-05-24T01:03:48.814Z,10.53
2023-05-24T01:06:18.872Z,10.52
2023-05-24T01:09:03.223Z,10.50
2023-05-24T01:11:42.207Z,10.49
2023-05-24T01:14:21.378Z,10.45
2023-05-24T01:17:03.223Z,10.45
2023-05-24T01:19:51.309Z,10.42
2023-05-24T01:22:41.164Z,10.36
2023-05-24T01:25:30.114Z,10.33
2023-05-24T01:28:04.629Z,10.33
2023-05-24T01:30:34.219Z,10.30
2023-05-24T01:33:04.094Z,10.29
2023-05-24T01:35:32.260Z,10.28
2023-05-24T01:38:00.472Z,10.25
2023-05-24T01:40:28.780Z,10.17
2023-05-24T01:43:05.744Z,10.15
2023-05-24T01:45:41.102Z,10.08
2023-05-24T01:48:19.395Z,10.07
2023-05-24T01:50:51.289Z,10.05
2023-05-24T01:53:22.084Z,10.04
2023-05-24T01:55:55.217Z,10.01
2023-05-24T01:58:27.209Z,9.99
2023-05-24T02:00:56.159Z,9.94
2023-05-24T02:03:24.653Z,9.91
2023-05-24T02:05:53.074Z,9.89
2023-05-24T02:08:21.354Z,9.86
2023-05-24T02:10:50.704Z,9.85
2023-05-24T02:13:20.085Z,9.83
2023-05-24T02:15:50.069Z,9.80
2023-05-24T02:18:19.113Z,9.77
2023-05-24T02:20:47.406Z,9.75
2023-05-24T02:23:15.569Z,9.70
2023-05-24T02:25:43.622Z,9.66
2023-05-24T02:28:11.742Z,9.61
2023-05-24T02:30:40.043Z,9.59
2023-05-24T02:33:09.899Z,9.54
2023-05-24T02:35:38.474Z,9.52
2023-05-24T02:38:06.969Z,9.51
2023-05-24T02:40:37.520Z,9.51
2023-05-24T02:43:05.636Z,9.46
2023-05-24T02:45:33.898Z,9.41
2023-05-24T02:48:02.091Z,9.40
2023-05-24T02:50:31.854Z,9.40
2023-05-24T02:52:59.914Z,9.40
2023-05-24T02:55:29.216Z,9.23
2023-05-24T02:57:57.144Z,9.24
2023-05-24T03:00:25.247Z,9.24
2023-05-24T03:02:53.170Z,9.16
2023-05-24T03:05:21.152Z,9.23
2023-05-24T03:07:55.009Z,9.27
2023-05-24T03:10:23.436Z,9.24
2023-05-24T03:12:52.228Z,9.17
2023-05-24T03:15:21.378Z,9.19
2023-05-24T03:17:50.264Z,9.24
2023-05-24T03:20:21.343Z,9.25
2023-05-24T03:22:51.429Z,9.26
2023-05-24T03:25:20.403Z,9.25
2023-05-24T03:27:48.693Z,9.26
2023-05-24T03:30:20.282Z,9.26
2023-05-24T03:32:48.421Z,9.23
2023-05-24T03:35:18.928Z,9.23
2023-05-24T03:37:47.536Z,9.28
2023-05-24T03:40:34.809Z,9.27
2023-05-24T03:43:04.634Z,9.30
2023-05-24T03:45:39.130Z,9.28
2023-05-24T03:48:08.711Z,9.28
2023-05-24T03:50:39.346Z,9.29
2023-05-24T03:53:07.604Z,9.29
2023-05-24T03:55:39.376Z,9.32
2023-05-24T03:58:07.877Z,9.31
2023-05-24T04:00:38.160Z,9.32
2023-05-24T04:03:07.624Z,9.36
2023-05-24T04:05:37.628Z,9.42
2023-05-24T04:08:05.738Z,9.48
2023-05-24T04:10:34.477Z,9.53
2023-05-24T04:13:04.777Z,9.63
2023-05-24T04:15:34.860Z,9.70
2023-05-24T04:18:03.412Z,9.73
2023-05-24T04:20:32.311Z,9.80
2023-05-24T04:23:01.037Z,9.87
2023-05-24T04:25:29.676Z,9.94
2023-05-24T04:27:57.888Z,9.92
2023-05-24T04:30:29.889Z,9.92
2023-05-24T04:32:58.478Z,9.95
2023-05-24T04:35:28.204Z,9.90
2023-05-24T04:37:56.623Z,9.91
2023-05-24T04:40:25.204Z,9.98
2023-05-24T04:42:55.584Z,10.05
2023-05-24T04:45:24.036Z,10.17
2023-05-24T04:47:53.810Z,10.27
2023-05-24T04:50:21.971Z,10.33
2023-05-24T04:52:50.239Z,10.50
2023-05-24T04:55:18.506Z,10.65
2023-05-24T04:57:46.766Z,10.73
2023-05-24T05:00:15.752Z,10.84
2023-05-24T05:02:44.072Z,10.90
2023-05-24T05:05:14.985Z,10.98
2023-05-24T05:07:45.165Z,11.05
2023-05-24T05:10:14.032Z,11.08
2023-05-24T05:12:42.794Z,10.89
2023-05-24T05:15:13.574Z,11.02
2023-05-24T05:17:43.240Z,11.20
2023-05-24T05:20:12.922Z,11.30
2023-05-24T05:22:47.211Z,11.27
2023-05-24T05:25:16.765Z,11.32
2023-05-24T05:27:45.289Z,11.41
2023-05-24T05:30:14.145Z,11.58
2023-05-24T05:32:42.455Z,11.62
2023-05-24T05:35:11.047Z,11.66
2023-05-24T05:37:39.128Z,11.78
2023-05-24T05:40:10.693Z,11.80
2023-05-24T05:42:38.688Z,11.79
2023-05-24T05:45:08.031Z,11.81
2023-05-24T05:47:36.870Z,11.94
2023-05-24T05:50:05.354Z,12.10
2023-05-24T05:52:33.589Z,12.22
2023-05-24T05:55:01.809Z,12.34
2023-05-24T05:57:31.459Z,12.48
2023-05-24T05:59:59.528Z,12.56
2023-05-24T06:02:27.549Z,12.69
2023-05-24T06:04:55.659Z,12.77
2023-05-24T06:07:23.787Z,12.85
2023-05-24T06:09:51.854Z,12.97
2023-05-24T06:12:20.004Z,13.07
2023-05-24T06:14:50.869Z,13.20
2023-05-24T06:17:19.114Z,13.22
2023-05-24T06:19:46.992Z,13.19
2023-05-24T06:22:14.952Z,13.32
2023-05-24T06:24:43.867Z,13.53
2023-05-24T06:27:22.697Z,13.74
2023-05-24T06:29:52.536Z,13.83
2023-05-24T06:32:21.218Z,13.89
2023-05-24T06:34:53.647Z,13.77
2023-05-24T06:37:26.396Z,13.74
2023-05-24T06:39:54.597Z,13.61
2023-05-24T06:42:22.862Z,13.56
2023-05-24T06:44:52.733Z,13.89
2023-05-24T06:47:20.956Z,14.00
2023-05-24T06:49:50.290Z,13.97
2023-05-24T06:52:18.652Z,14.00
2023-05-24T06:54:46.850Z,14.14
2023-05-24T06:57:15.546Z,14.31
2023-05-24T06:59:43.868Z,14.34
2023-05-24T07:02:14.016Z,14.30
2023-05-24T07:04:42.604Z,14.29
2023-05-24T07:10:02.964Z,13.87
2023-05-24T07:12:32.748Z,14.08
2023-05-24T07:15:00.860Z,14.24
2023-05-24T07:17:31.167Z,14.32
2023-05-24T07:19:59.610Z,14.51
2023-05-24T07:22:29.503Z,14.67
2023-05-24T07:24:57.883Z,14.76
2023-05-24T07:27:26.289Z,14.54
2023-05-24T07:29:54.806Z,14.34
2023-05-24T07:32:23.411Z,14.13
2023-05-24T07:34:54.800Z,14.04
2023-05-24T07:37:24.470Z,14.19
2023-05-24T07:39:54.181Z,14.09
2023-05-24T07:42:22.810Z,14.18
2023-05-24T07:44:51.130Z,14.23
2023-05-24T07:47:19.703Z,14.23
2023-05-24T07:49:48.033Z,14.07
2023-05-24T07:52:20.476Z,14.01
2023-05-24T07:54:48.549Z,14.21
2023-05-24T07:57:27.353Z,14.27
2023-05-24T07:59:55.537Z,14.28
2023-05-24T08:02:26.110Z,14.48
2023-05-24T08:04:54.490Z,14.75
2023-05-24T08:07:24.419Z,14.57
2023-05-24T08:09:52.915Z,14.68
2023-05-24T08:12:22.810Z,14.77
2023-05-24T08:14:50.682Z,14.82
2023-05-24T08:17:18.652Z,14.88
2023-05-24T08:19:46.808Z,14.95
2023-05-24T08:22:14.916Z,15.10
2023-05-24T08:24:45.948Z,14.97
2023-05-24T08:27:14.196Z,15.02
2023-05-24T08:29:42.299Z,15.07
2023-05-24T08:32:10.969Z,15.01
2023-05-24T08:34:39.259Z,15.20
2023-05-24T08:37:07.241Z,15.28
2023-05-24T08:39:40.634Z,15.48
2023-05-24T08:42:11.127Z,15.17
2023-05-24T08:44:43.831Z,15.21
2023-05-24T08:47:13.970Z,15.31
2023-05-24T08:49:47.749Z,15.48
2023-05-24T08:52:15.970Z,15.54
2023-05-24T08:54:44.901Z,15.35
2023-05-24T08:57:15.252Z,15.32
2023-05-24T08:59:44.197Z,15.29
2023-05-24T09:02:15.125Z,15.15
2023-05-24T09:04:45.023Z,15.19
2023-05-24T09:07:15.282Z,15.43
2023-05-24T09:09:45.566Z,15.50
2023-05-24T09:12:35.430Z,15.63
2023-05-24T09:15:08.524Z,15.84
2023-05-24T09:17:41.869Z,16.02
2023-05-24T09:20:12.016Z,16.25
2023-05-24T09:22:44.232Z,16.37
2023-05-24T09:25:15.551Z,16.47
2023-05-24T09:27:50.483Z,16.59
2023-05-24T09:30:19.970Z,16.80
2023-05-24T09:32:59.466Z,17.15
2023-05-24T09:35:28.402Z,17.07
2023-05-24T09:38:00.260Z,16.81
2023-05-24T09:40:32.564Z,16.25
2023-05-24T09:49:55.142Z,15.97
2023-05-24T09:52:52.884Z,16.13
2023-05-24T09:55:42.512Z,16.23
2023-05-24T09:58:18.767Z,16.29
2023-05-24T10:00:47.520Z,16.32
2023-05-24T10:03:18.392Z,16.33
2023-05-24T10:05:48.880Z,16.45
2023-05-24T10:08:19.762Z,16.43
2023-05-24T10:10:50.474Z,16.48
2023-05-24T10:13:26.026Z,16.69
2023-05-24T10:15:57.180Z,16.42
2023-05-24T10:18:27.097Z,16.67
2023-05-24T10:20:57.437Z,16.94
2023-05-24T10:23:28.703Z,17.19
2023-05-24T10:26:06.842Z,17.23
2023-05-24T10:28:42.530Z,17.39
2023-05-24T10:31:22.649Z,17.50
2023-05-24T10:34:06.534Z,17.73
2023-05-24T10:36:51.896Z,17.76
2023-05-24T10:39:30.941Z,17.58
2023-05-24T10:42:03.457Z,17.03
2023-05-24T10:44:39.846Z,16.71
2023-05-24T10:47:16.184Z,16.57
2023-05-24T10:49:51.784Z,16.65
2023-05-24T10:52:35.088Z,16.50
2023-05-24T10:55:11.328Z,16.50
2023-05-24T10:57:42.010Z,16.27
2023-05-24T11:00:41.555Z,16.30
2023-05-24T11:03:20.024Z,16.48
2023-05-24T11:05:55.306Z,16.66
2023-05-24T11:08:26.422Z,16.67
2023-05-24T11:11:25.637Z,16.67
2023-05-24T11:13:58.966Z,16.64
2023-05-24T11:16:42.829Z,16.56
2023-05-24T11:19:25.260Z,16.42
2023-05-24T11:21:58.922Z,16.31
2023-05-24T11:27:33.800Z,16.26
2023-05-24T11:30:06.265Z,16.31
2023-05-24T11:32:36.195Z,16.52
2023-05-24T11:35:11.952Z,16.73
2023-05-24T11:37:46.606Z,16.70
2023-05-24T11:40:16.764Z,16.69
2023-05-24T11:42:51.792Z,16.77
2023-05-24T11:45:24.134Z,16.85
2023-05-24T11:47:55.254Z,16.95
2023-05-24T11:50:53.891Z,16.85
2023-05-24T11:53:32.965Z,16.83
2023-05-24T11:56:02.001Z,16.61
2023-05-24T11:58:53.174Z,16.53
2023-05-24T12:01:40.945Z,16.76
2023-05-24T12:04:18.872Z,16.81
2023-05-24T12:07:16.125Z,16.88
2023-05-24T12:10:31.382Z,17.07
2023-05-24T12:13:34.702Z,17.06
2023-05-24T12:16:14.842Z,17.00
2023-05-24T12:19:05.255Z,17.22
2023-05-24T12:22:55.196Z,16.87
2023-05-24T12:25:55.021Z,17.03
2023-05-24T12:28:41.345Z,17.27
2023-05-24T12:31:29.612Z,17.65
2023-05-24T12:34:07.873Z,17.73
2023-05-24T12:36:46.804Z,17.99
2023-05-24T12:42:31.359Z,18.17
2023-05-24T12:45:44.525Z,18.46
2023-05-24T12:48:29.462Z,18.36
2023-05-24T12:54:20.401Z,18.07
2023-05-24T12:56:49.751Z,17.81
2023-05-24T12:59:19.264Z,17.75
2023-05-24T13:02:27.555Z,17.61
2023-05-24T13:05:01.815Z,17.67
2023-05-24T13:07:33.072Z,17.77
2023-05-24T13:10:01.714Z,17.76
2023-05-24T13:12:29.877Z,18.01
2023-05-24T13:14:59.502Z,18.24
2023-05-24T13:17:29.458Z,18.25
2023-05-24T13:20:00.788Z,18.15
2023-05-24T13:22:29.144Z,18.18
2023-05-24T13:24:57.404Z,18.18
2023-05-24T13:30:12.599Z,17.78
2023-05-24T13:32:41.281Z,17.71
2023-05-24T13:35:12.199Z,17.68
2023-05-24T13:37:41.131Z,17.74
2023-05-24T13:40:27.065Z,17.66
2023-05-24T13:42:58.158Z,17.80
2023-05-24T13:45:30.347Z,17.47
2023-05-24T13:48:04.015Z,17.63
2023-05-24T13:50:32.678Z,17.52
2023-05-24T13:53:03.598Z,17.61
2023-05-24T13:55:34.166Z,17.81
2023-05-24T13:58:04.944Z,18.17
2023-05-24T14:00:36.194Z,18.24
2023-05-24T14:03:06.079Z,18.19
2023-05-24T14:05:34.514Z,18.38
2023-05-24T14:08:07.100Z,18.40
2023-05-24T14:10:41.904Z,18.58
2023-05-24T14:13:36.771Z,18.50
2023-05-24T14:16:06.625Z,18.56
2023-05-24T14:18:44.061Z,18.46
2023-05-24T14:21:15.474Z,18.62
2023-05-24T14:23:43.608Z,18.26
2023-05-24T14:26:17.124Z,18.29
2023-05-24T14:28:45.466Z,18.42
2023-05-24T14:31:19.422Z,18.58
2023-05-24T14:33:49.538Z,18.50
2023-05-24T14:36:18.029Z,18.42
2023-05-24T14:38:46.893Z,18.45
2023-05-24T14:41:19.347Z,18.64
2023-05-24T14:43:50.823Z,18.68
2023-05-24T14:46:21.568Z,18.31
2023-05-24T14:48:54.327Z,18.43
2023-05-24T14:51:29.724Z,18.50
2023-05-24T14:53:58.113Z,18.71
2023-05-24T14:56:28.128Z,18.91
2023-05-24T14:58:56.521Z,18.90
2023-05-24T15:01:29.038Z,18.71
2023-05-24T15:04:06.567Z,18.61
2023-05-24T15:06:48.321Z,18.71
2023-05-24T15:09:20.134Z,18.73
2023-05-24T15:11:48.444Z,18.62
2023-05-24T15:14:18.893Z,18.58
2023-05-24T15:16:51.189Z,18.43
2023-05-24T15:19:25.103Z,18.42
2023-05-24T15:22:04.641Z,18.56
2023-05-24T15:24:46.941Z,18.82
2023-05-24T15:27:16.755Z,18.98
2023-05-24T15:29:54.579Z,18.96
2023-05-24T15:32:25.125Z,18.98
2023-05-24T15:34:53.341Z,18.93
2023-05-24T15:37:54.648Z,18.66
2023-05-24T15:43:54.455Z,18.56
2023-05-24T15:46:22.851Z,18.38
2023-05-24T15:49:11.111Z,18.31
2023-05-24T15:52:03.137Z,18.18
2023-05-24T15:54:53.511Z,17.98
2023-05-24T15:57:30.184Z,17.81
2023-05-24T15:59:58.641Z,17.91
2023-05-24T16:02:46.889Z,18.16
2023-05-24T16:05:22.650Z,18.21
2023-05-24T16:07:56.676Z,18.37
2023-05-24T16:10:56.051Z,18.56
2023-05-24T16:13:30.272Z,18.79
2023-05-24T16:17:01.053Z,18.88
2023-05-24T16:22:56.535Z,18.60
2023-05-24T16:25:25.795Z,18.53
2023-05-24T16:29:00.987Z,18.44
2023-05-24T16:32:11.233Z,18.31
2023-05-24T16:34:55.402Z,18.11
2023-05-24T16:37:38.887Z,17.89
2023-05-24T16:40:18.315Z,17.88
2023-05-24T16:43:07.027Z,17.80
2023-05-24T16:46:08.475Z,17.88
2023-05-24T16:49:00.638Z,18.04
2023-05-24T16:51:49.668Z,18.23
2023-05-24T16:54:32.648Z,18.31
2023-05-24T16:57:08.387Z,18.37
2023-05-24T16:59:44.037Z,18.40
2023-05-24T17:02:22.057Z,18.46
2023-05-24T17:04:56.471Z,18.52
2023-05-24T17:08:16.334Z,18.50
2023-05-24T17:11:15.849Z,18.50
2023-05-24T17:13:59.190Z,18.48
2023-05-24T17:16:57.447Z,18.43
2023-05-24T17:19:50.957Z,18.23
2023-05-24T17:22:57.524Z,18.18
2023-05-24T17:26:56.870Z,18.13
2023-05-24T17:29:54.900Z,18.10
2023-05-24T17:32:53.661Z,17.97
2023-05-24T17:35:33.709Z,18.07
2023-05-24T17:38:40.781Z,17.77
2023-05-24T17:41:45.233Z,17.73
2023-05-24T17:44:14.782Z,17.61
2023-05-24T17:46:43.919Z,17.67
2023-05-24T17:49:12.754Z,17.76
2023-05-24T17:51:48.291Z,17.78
2023-05-24T17:54:22.837Z,17.86
2023-05-24T17:56:51.646Z,17.79
2023-05-24T17:59:21.955Z,17.67
2023-05-24T18:02:14.831Z,17.66
2023-05-24T18:04:46.025Z,17.66
2023-05-24T18:07:17.171Z,17.51
2023-05-24T18:10:14.997Z,17.57
2023-05-24T18:20:56.639Z,17.61
2023-05-24T18:23:25.115Z,17.54
2023-05-24T18:26:00.378Z,17.60
2023-05-24T18:32:14.432Z,17.53
2023-05-24T18:34:47.856Z,17.39
2023-05-24T18:38:00.170Z,17.32
2023-05-24T18:47:05.277Z,17.33
2023-05-24T18:49:34.674Z,17.32
2023-05-24T18:55:56.120Z,17.26
2023-05-24T20:56:53.062Z,15.56
2023-05-24T20:59:39.048Z,15.54
2023-05-24T21:02:40.544Z,15.56
2023-05-24T22:21:24.061Z,14.48
